Time;durP1;ratioP1;P1;durP2;ratioP2;P2;SDS_P1;SDS_P2;PMS_P1;PMS_P2;Temp;Humidity;BMP_temperature;BMP_pressure;BME280_temperature;BME280_humidity;BME280_pressure;Samples;Min_cycle;Max_cycle;Signal;HPM_P1;HPM_P2
2023/11/12 00:01:45;;;;;;;2.70;1.77;;;;;;;;;;5102738;28;20023;-72
2023/11/12 00:04:30;;;;;;;5.50;1.70;;;;;;;;;;5115914;28;20045;-71
2023/11/12 00:07:16;;;;;;;1.88;1.40;;;;;;;;;;5114736;28;20473;-71
2023/11/12 00:10:02;;;;;;;3.50;1.70;;;;;;;;;;5101876;28;20034;-71
2023/11/12 00:12:48;;;;;;;1.52;1.40;;;;;;;;;;5115980;28;20027;-71
2023/11/12 00:15:34;;;;;;;2.40;1.80;;;;;;;;;;5115484;28;20027;-72
2023/11/12 00:18:19;;;;;;;2.60;1.90;;;;;;;;;;5102714;28;20153;-71
2023/11/12 00:21:05;;;;;;;1.90;1.67;;;;;;;;;;5100666;28;20047;-71
2023/11/12 00:23:51;;;;;;;2.05;1.65;;;;;;;;;;5116130;28;20034;-72
2023/11/12 00:26:37;;;;;;;1.98;1.60;;;;;;;;;;5116147;28;20411;-72
2023/11/12 00:29:23;;;;;;;1.63;1.50;;;;;;;;;;5100001;28;20085;-70
2023/11/12 00:32:09;;;;;;;5.50;1.80;;;;;;;;;;5117112;28;20027;-72
2023/11/12 00:34:54;;;;;;;5.40;1.70;;;;;;;;;;5116083;28;20035;-71
2023/11/12 00:37:40;;;;;;;5.57;1.52;;;;;;;;;;5115505;28;20030;-71
2023/11/12 00:40:26;;;;;;;3.10;1.50;;;;;;;;;;5115875;28;20069;-70
2023/11/12 00:43:12;;;;;;;2.50;1.63;;;;;;;;;;5115778;28;20015;-70
2023/11/12 00:45:58;;;;;;;1.80;1.50;;;;;;;;;;5116447;28;20016;-72
2023/11/12 00:48:44;;;;;;;5.10;1.50;;;;;;;;;;5115069;28;20188;-71
2023/11/12 00:51:29;;;;;;;1.60;1.45;;;;;;;;;;5114922;28;20031;-71
2023/11/12 00:54:16;;;;;;;1.50;1.40;;;;;;;;;;5113930;28;20055;-71
2023/11/12 00:57:01;;;;;;;1.52;1.42;;;;;;;;;;5115023;28;20015;-72
2023/11/12 00:59:47;;;;;;;3.50;1.60;;;;;;;;;;5115409;28;20023;-71
2023/11/12 01:02:33;;;;;;;2.00;1.67;;;;;;;;;;5113608;28;20026;-71
2023/11/12 01:05:19;;;;;;;3.47;1.58;;;;;;;;;;5114892;28;20020;-70
2023/11/12 01:08:05;;;;;;;2.53;1.70;;;;;;;;;;5114607;28;20042;-70
2023/11/12 01:10:55;;;;;;;1.80;1.60;;;;;;;;;;5115199;28;20051;-73
2023/11/12 01:13:41;;;;;;;2.85;1.38;;;;;;;;;;5115306;28;20097;-71
2023/11/12 01:16:27;;;;;;;3.08;1.50;;;;;;;;;;5114596;28;20474;-70
2023/11/12 01:19:12;;;;;;;2.65;1.27;;;;;;;;;;5113672;28;20095;-71
2023/11/12 01:21:58;;;;;;;2.95;1.20;;;;;;;;;;5114003;28;20020;-72
2023/11/12 01:24:43;;;;;;;3.17;1.65;;;;;;;;;;5113258;28;20027;-71
2023/11/12 01:27:29;;;;;;;1.60;1.50;;;;;;;;;;5114607;28;20073;-71
2023/11/12 01:30:15;;;;;;;2.63;1.60;;;;;;;;;;5114257;28;20097;-71
2023/11/12 01:33:03;;;;;;;2.05;1.60;;;;;;;;;;5113819;28;20026;-71
2023/11/12 01:35:48;;;;;;;1.70;1.20;;;;;;;;;;5134881;27;20359;-71
2023/11/12 01:38:34;;;;;;;2.97;1.40;;;;;;;;;;5134933;27;20027;-70
2023/11/12 01:41:19;;;;;;;3.30;1.20;;;;;;;;;;5135204;27;20102;-71
2023/11/12 01:44:05;;;;;;;1.88;1.40;;;;;;;;;;5134545;27;20023;-70
2023/11/12 01:46:51;;;;;;;2.08;1.50;;;;;;;;;;5134699;27;20123;-71
2023/11/12 01:49:37;;;;;;;1.77;1.30;;;;;;;;;;5134603;27;20164;-70
2023/11/12 01:52:23;;;;;;;3.50;1.48;;;;;;;;;;5134603;27;20092;-71
2023/11/12 01:55:10;;;;;;;7.10;1.60;;;;;;;;;;5133573;27;20130;-71
2023/11/12 01:57:56;;;;;;;1.40;1.30;;;;;;;;;;5118262;27;20024;-72
2023/11/12 02:00:44;;;;;;;1.35;1.23;;;;;;;;;;5098639;28;20452;-71
2023/11/12 02:03:29;;;;;;;2.20;1.30;;;;;;;;;;5115513;28;20038;-72
2023/11/12 02:06:15;;;;;;;2.97;1.80;;;;;;;;;;5115021;28;20055;-71
2023/11/12 02:09:01;;;;;;;1.52;1.23;;;;;;;;;;5114904;28;20028;-71
2023/11/12 02:11:47;;;;;;;1.67;1.23;;;;;;;;;;5100434;28;20023;-71
2023/11/12 02:14:33;;;;;;;2.90;1.50;;;;;;;;;;5097929;28;20016;-71
2023/11/12 02:17:19;;;;;;;1.48;1.20;;;;;;;;;;5113697;28;20015;-72
2023/11/12 02:20:07;;;;;;;2.50;1.33;;;;;;;;;;5121643;28;20031;-69
2023/11/12 02:22:53;;;;;;;6.00;1.20;;;;;;;;;;5119955;28;20028;-69
2023/11/12 02:25:39;;;;;;;2.88;1.30;;;;;;;;;;5115293;28;20012;-70
2023/11/12 02:28:24;;;;;;;4.50;1.20;;;;;;;;;;5125717;28;20057;-69
2023/11/12 02:31:10;;;;;;;1.58;1.13;;;;;;;;;;5123685;28;20499;-70
2023/11/12 02:33:55;;;;;;;1.77;1.20;;;;;;;;;;5118135;28;20362;-70
2023/11/12 02:36:41;;;;;;;1.33;1.20;;;;;;;;;;5097646;28;20066;-70
2023/11/12 02:39:26;;;;;;;4.18;1.30;;;;;;;;;;5113353;28;20012;-71
2023/11/12 02:42:13;;;;;;;2.72;1.13;;;;;;;;;;5097758;28;20043;-72
2023/11/12 02:44:59;;;;;;;1.90;1.25;;;;;;;;;;5098637;28;20085;-70
2023/11/12 02:47:45;;;;;;;1.45;1.10;;;;;;;;;;5113972;28;20086;-69
2023/11/12 02:50:31;;;;;;;1.63;1.23;;;;;;;;;;5113542;28;20058;-70
2023/11/12 02:53:18;;;;;;;1.88;1.30;;;;;;;;;;5112558;28;20016;-71
2023/11/12 02:56:05;;;;;;;1.30;1.10;;;;;;;;;;5113257;28;20047;-69
2023/11/12 02:58:51;;;;;;;2.17;1.02;;;;;;;;;;5097801;28;20016;-70
2023/11/12 03:01:37;;;;;;;1.20;1.10;;;;;;;;;;5097279;28;20016;-70
2023/11/12 03:04:22;;;;;;;2.42;1.10;;;;;;;;;;5098513;28;20076;-69
2023/11/12 03:07:08;;;;;;;1.25;1.13;;;;;;;;;;5098965;28;20027;-70
2023/11/12 03:09:54;;;;;;;1.60;1.20;;;;;;;;;;5113228;28;20533;-70
2023/11/12 03:12:40;;;;;;;1.65;1.15;;;;;;;;;;5113320;28;20444;-72
2023/11/12 03:15:25;;;;;;;2.97;1.27;;;;;;;;;;5113170;28;20336;-71
2023/11/12 03:18:11;;;;;;;1.20;1.00;;;;;;;;;;5098361;28;20432;-71
2023/11/12 03:20:56;;;;;;;1.45;1.00;;;;;;;;;;5097564;28;20432;-71
2023/11/12 03:23:42;;;;;;;1.80;1.00;;;;;;;;;;5113713;28;20020;-71
2023/11/12 03:26:28;;;;;;;1.20;1.10;;;;;;;;;;5116258;28;20047;-71
2023/11/12 03:29:13;;;;;;;1.50;1.00;;;;;;;;;;5116737;28;20049;-70
2023/11/12 03:31:59;;;;;;;2.40;1.30;;;;;;;;;;5116649;28;20028;-71
2023/11/12 03:34:45;;;;;;;1.80;1.00;;;;;;;;;;5117227;28;20016;-71
2023/11/12 03:37:30;;;;;;;4.60;0.98;;;;;;;;;;5101799;28;20034;-71
2023/11/12 03:40:16;;;;;;;1.20;1.00;;;;;;;;;;5102175;28;20462;-71
2023/11/12 03:43:02;;;;;;;0.93;0.90;;;;;;;;;;5102726;28;20024;-72
2023/11/12 03:45:47;;;;;;;1.10;0.90;;;;;;;;;;5102176;28;20446;-72
2023/11/12 03:48:33;;;;;;;1.67;1.08;;;;;;;;;;5115597;28;20070;-71
2023/11/12 03:51:18;;;;;;;1.02;0.85;;;;;;;;;;5116506;28;20016;-72
2023/11/12 03:54:04;;;;;;;1.42;1.00;;;;;;;;;;5102082;28;20048;-72
2023/11/12 03:56:50;;;;;;;1.13;0.88;;;;;;;;;;5102107;28;20477;-71
2023/11/12 03:59:36;;;;;;;1.60;1.00;;;;;;;;;;5101708;28;20432;-70
2023/11/12 04:02:21;;;;;;;4.43;1.13;;;;;;;;;;5116791;28;20106;-71
2023/11/12 04:05:07;;;;;;;1.10;0.77;;;;;;;;;;5101653;28;20015;-71
2023/11/12 04:07:53;;;;;;;1.05;0.80;;;;;;;;;;5116280;28;20390;-70
2023/11/12 04:10:39;;;;;;;2.55;0.80;;;;;;;;;;5116312;28;20037;-71
2023/11/12 04:13:25;;;;;;;1.70;0.80;;;;;;;;;;5101992;28;20049;-70
2023/11/12 04:16:10;;;;;;;1.50;1.10;;;;;;;;;;5115989;28;20035;-70
2023/11/12 04:18:56;;;;;;;0.77;0.77;;;;;;;;;;5115263;28;20020;-70
2023/11/12 04:21:44;;;;;;;1.83;0.90;;;;;;;;;;5100731;28;20371;-70
2023/11/12 04:24:30;;;;;;;1.27;0.90;;;;;;;;;;5101998;28;20024;-70
2023/11/12 04:27:16;;;;;;;1.20;0.82;;;;;;;;;;5114672;28;20020;-70
2023/11/12 04:30:02;;;;;;;1.52;0.93;;;;;;;;;;5115385;28;20027;-71
2023/11/12 04:32:47;;;;;;;2.92;0.77;;;;;;;;;;5115788;28;20032;-71
2023/11/12 04:35:33;;;;;;;0.82;0.77;;;;;;;;;;5114743;28;20023;-71
2023/11/12 04:38:19;;;;;;;4.05;0.82;;;;;;;;;;5116075;28;20069;-71
2023/11/12 04:41:04;;;;;;;1.75;1.08;;;;;;;;;;5100702;28;20081;-71
2023/11/12 04:43:50;;;;;;;1.95;0.90;;;;;;;;;;5116138;28;20343;-71
2023/11/12 04:46:37;;;;;;;1.15;0.80;;;;;;;;;;5115599;28;20125;-71
2023/11/12 04:49:24;;;;;;;1.15;0.80;;;;;;;;;;5115198;28;20409;-72
2023/11/12 04:52:10;;;;;;;1.30;0.80;;;;;;;;;;5115885;28;20019;-71
2023/11/12 04:54:55;;;;;;;0.90;0.70;;;;;;;;;;5115129;28;20543;-71
2023/11/12 04:57:41;;;;;;;1.63;0.93;;;;;;;;;;5115499;28;20030;-71
2023/11/12 05:00:27;;;;;;;2.28;0.90;;;;;;;;;;5115697;28;20019;-72
2023/11/12 05:03:13;;;;;;;0.60;0.60;;;;;;;;;;5115565;28;20356;-71
2023/11/12 05:05:59;;;;;;;0.80;0.70;;;;;;;;;;5100495;28;20035;-72
2023/11/12 05:08:45;;;;;;;1.42;0.70;;;;;;;;;;5115369;28;20444;-71
2023/11/12 05:11:30;;;;;;;1.80;0.70;;;;;;;;;;5100506;28;20030;-71
2023/11/12 05:14:16;;;;;;;2.10;0.70;;;;;;;;;;5100251;28;20084;-72
2023/11/12 05:17:02;;;;;;;0.88;0.80;;;;;;;;;;5115374;28;20499;-72
2023/11/12 05:19:48;;;;;;;0.90;0.70;;;;;;;;;;5114298;28;20016;-71
2023/11/12 05:22:33;;;;;;;0.68;0.60;;;;;;;;;;5116419;28;20035;-72
2023/11/12 05:25:20;;;;;;;1.52;0.88;;;;;;;;;;5114453;28;20431;-71
2023/11/12 05:28:05;;;;;;;1.42;0.80;;;;;;;;;;5114114;28;20443;-71
2023/11/12 05:30:51;;;;;;;7.43;0.70;;;;;;;;;;5115442;28;20024;-72
2023/11/12 05:33:37;;;;;;;1.05;0.70;;;;;;;;;;5113464;28;20023;-71
2023/11/12 05:36:22;;;;;;;1.25;0.73;;;;;;;;;;5114936;28;20031;-71
2023/11/12 05:39:12;;;;;;;1.25;0.70;;;;;;;;;;5114140;28;20094;-70
2023/11/12 05:41:57;;;;;;;0.75;0.70;;;;;;;;;;5100399;28;20044;-70
2023/11/12 05:44:43;;;;;;;1.27;0.80;;;;;;;;;;5114868;28;20015;-70
2023/11/12 05:47:28;;;;;;;2.22;0.77;;;;;;;;;;5115057;28;20053;-70
2023/11/12 05:50:14;;;;;;;1.20;0.65;;;;;;;;;;5114409;28;20026;-71
2023/11/12 05:53:00;;;;;;;1.92;0.70;;;;;;;;;;5114469;28;20309;-71
2023/11/12 05:55:45;;;;;;;1.38;0.80;;;;;;;;;;5114234;28;20093;-70
2023/11/12 05:58:31;;;;;;;2.85;0.90;;;;;;;;;;5114531;28;20019;-70
2023/11/12 06:01:18;;;;;;;0.73;0.70;;;;;;;;;;5114140;28;20051;-71
2023/11/12 06:04:04;;;;;;;0.98;0.70;;;;;;;;;;5114423;28;20019;-70
2023/11/12 06:06:49;;;;;;;1.95;1.00;;;;;;;;;;5098669;28;20023;-71
2023/11/12 06:09:35;;;;;;;1.60;0.88;;;;;;;;;;5100059;28;20016;-72
2023/11/12 06:12:21;;;;;;;2.38;0.88;;;;;;;;;;5113235;28;20077;-71
2023/11/12 06:15:07;;;;;;;1.70;0.90;;;;;;;;;;5113905;28;20035;-71
2023/11/12 06:17:53;;;;;;;1.20;1.10;;;;;;;;;;5099494;28;20448;-71
2023/11/12 06:20:38;;;;;;;4.40;1.10;;;;;;;;;;5114161;28;20482;-71
2023/11/12 06:23:24;;;;;;;2.20;0.80;;;;;;;;;;5098793;28;20055;-71
2023/11/12 06:26:10;;;;;;;1.42;0.90;;;;;;;;;;5099207;28;20038;-70
2023/11/12 06:28:56;;;;;;;2.00;0.75;;;;;;;;;;5113966;28;20016;-71
2023/11/12 06:31:41;;;;;;;5.85;0.88;;;;;;;;;;5113730;28;20130;-70
2023/11/12 06:34:27;;;;;;;2.95;1.00;;;;;;;;;;5113874;28;20355;-71
2023/11/12 06:37:13;;;;;;;2.25;0.77;;;;;;;;;;5099016;28;20055;-71
2023/11/12 06:39:59;;;;;;;0.80;0.70;;;;;;;;;;5099599;28;20041;-71
2023/11/12 06:42:45;;;;;;;1.15;0.80;;;;;;;;;;5114149;28;20019;-72
2023/11/12 06:45:31;;;;;;;1.30;0.80;;;;;;;;;;5114512;28;20028;-71
2023/11/12 06:48:17;;;;;;;0.93;0.65;;;;;;;;;;5099738;28;20028;-71
2023/11/12 06:51:03;;;;;;;2.30;1.05;;;;;;;;;;5098900;28;20019;-71
2023/11/12 06:53:48;;;;;;;3.53;0.82;;;;;;;;;;5100219;28;20048;-71
2023/11/12 06:56:34;;;;;;;1.15;0.85;;;;;;;;;;5115674;28;20352;-71
2023/11/12 06:59:20;;;;;;;1.25;0.80;;;;;;;;;;5120790;28;20023;-71
2023/11/12 07:02:06;;;;;;;3.08;0.80;;;;;;;;;;5128008;28;20352;-71
2023/11/12 07:04:53;;;;;;;1.35;0.80;;;;;;;;;;5122622;28;20027;-72
2023/11/12 07:07:38;;;;;;;1.15;0.70;;;;;;;;;;5102766;28;20424;-72
2023/11/12 07:10:24;;;;;;;2.90;1.42;;;;;;;;;;5102721;28;20033;-71
2023/11/12 07:13:10;;;;;;;1.60;0.80;;;;;;;;;;5102664;28;20020;-71
2023/11/12 07:15:55;;;;;;;3.00;0.90;;;;;;;;;;5117976;28;20028;-71
2023/11/12 07:18:41;;;;;;;1.02;0.70;;;;;;;;;;5117371;28;20101;-72
2023/11/12 07:21:27;;;;;;;2.92;0.80;;;;;;;;;;5117494;28;20352;-72
2023/11/12 07:24:13;;;;;;;0.80;0.70;;;;;;;;;;5115786;28;20023;-72
2023/11/12 07:26:59;;;;;;;1.13;0.80;;;;;;;;;;5117259;28;20359;-71
2023/11/12 07:29:45;;;;;;;0.70;0.65;;;;;;;;;;5117549;28;20019;-71
2023/11/12 07:32:31;;;;;;;2.90;0.80;;;;;;;;;;5117230;28;20038;-71
2023/11/12 07:35:16;;;;;;;3.72;0.90;;;;;;;;;;5116685;28;20359;-72
2023/11/12 07:38:02;;;;;;;1.48;0.90;;;;;;;;;;5117348;28;20023;-71
2023/11/12 07:40:47;;;;;;;2.40;0.80;;;;;;;;;;5117102;28;20070;-72
2023/11/12 07:43:36;;;;;;;3.45;0.77;;;;;;;;;;5116837;28;20015;-71
2023/11/12 07:46:22;;;;;;;3.30;0.73;;;;;;;;;;5116318;28;20019;-73
2023/11/12 07:49:08;;;;;;;2.30;0.70;;;;;;;;;;5116028;28;20024;-71
2023/11/12 07:51:53;;;;;;;1.08;0.73;;;;;;;;;;5117191;28;20512;-71
2023/11/12 07:54:39;;;;;;;4.65;0.90;;;;;;;;;;5115835;28;20067;-71
2023/11/12 07:57:25;;;;;;;1.60;0.90;;;;;;;;;;5117048;28;20023;-71
2023/11/12 08:00:12;;;;;;;2.90;0.90;;;;;;;;;;5101652;28;20012;-70
2023/11/12 08:02:58;;;;;;;1.35;0.80;;;;;;;;;;5116884;28;20023;-70
2023/11/12 08:05:45;;;;;;;5.53;0.90;;;;;;;;;;5116666;28;20036;-71
2023/11/12 08:08:31;;;;;;;1.27;0.80;;;;;;;;;;5101834;28;20035;-71
2023/11/12 08:11:17;;;;;;;3.60;1.00;;;;;;;;;;5116099;28;20055;-70
2023/11/12 08:14:02;;;;;;;2.08;1.00;;;;;;;;;;5117454;28;20023;-71
2023/11/12 08:16:48;;;;;;;1.63;0.93;;;;;;;;;;5116426;28;20016;-71
2023/11/12 08:19:34;;;;;;;1.88;1.20;;;;;;;;;;5101552;28;20141;-70
2023/11/12 08:22:20;;;;;;;1.63;1.05;;;;;;;;;;5102241;28;20401;-71
2023/11/12 08:25:06;;;;;;;20.17;3.30;;;;;;;;;;5116629;28;20424;-71
2023/11/12 08:27:52;;;;;;;2.80;1.27;;;;;;;;;;5115314;28;20038;-70
2023/11/12 08:30:37;;;;;;;3.15;1.40;;;;;;;;;;5116018;28;20023;-72
2023/11/12 08:33:23;;;;;;;7.78;1.50;;;;;;;;;;5116646;28;20081;-71
2023/11/12 08:36:10;;;;;;;2.78;1.38;;;;;;;;;;5114860;28;20077;-72
2023/11/12 08:38:55;;;;;;;2.17;1.30;;;;;;;;;;5116381;28;20016;-73
2023/11/12 08:41:42;;;;;;;1.92;0.90;;;;;;;;;;5116407;28;20047;-71
2023/11/12 08:44:28;;;;;;;1.50;1.00;;;;;;;;;;5116454;28;20027;-71
2023/11/12 08:47:14;;;;;;;1.33;1.10;;;;;;;;;;5101161;28;20106;-71
2023/11/12 08:49:59;;;;;;;1.58;1.02;;;;;;;;;;5101580;28;20032;-71
2023/11/12 08:52:46;;;;;;;2.47;0.80;;;;;;;;;;5115662;28;20094;-72
2023/11/12 08:55:31;;;;;;;1.42;0.90;;;;;;;;;;5116143;28;20345;-70
2023/11/12 08:58:18;;;;;;;3.97;0.80;;;;;;;;;;5101193;28;20016;-71
2023/11/12 09:01:08;;;;;;;45.17;4.63;;;;;;;;;;5116158;28;20015;-72
2023/11/12 09:03:54;;;;;;;5.07;1.35;;;;;;;;;;5101083;28;20020;-72
2023/11/12 09:06:39;;;;;;;5.20;1.00;;;;;;;;;;5100332;28;20096;-73
2023/11/12 09:09:25;;;;;;;0.90;0.80;;;;;;;;;;5115432;28;20027;-70
2023/11/12 09:12:11;;;;;;;1.10;0.77;;;;;;;;;;5115509;28;20023;-71
2023/11/12 09:14:57;;;;;;;1.50;0.88;;;;;;;;;;5115852;28;20452;-71
2023/11/12 09:17:43;;;;;;;5.40;1.00;;;;;;;;;;5115242;28;20506;-72
2023/11/12 09:20:28;;;;;;;1.25;0.90;;;;;;;;;;5115235;28;20466;-72
2023/11/12 09:23:14;;;;;;;1.88;1.20;;;;;;;;;;5115698;28;20052;-72
2023/11/12 09:26:00;;;;;;;1.73;1.00;;;;;;;;;;5115877;28;20028;-71
2023/11/12 09:28:46;;;;;;;1.75;1.00;;;;;;;;;;5115838;28;20028;-72
2023/11/12 09:31:32;;;;;;;5.15;1.17;;;;;;;;;;5100387;28;20024;-71
2023/11/12 09:34:18;;;;;;;7.43;0.98;;;;;;;;;;5115600;28;20031;-72
2023/11/12 09:37:04;;;;;;;1.30;0.90;;;;;;;;;;5115011;28;20451;-71
2023/11/12 09:39:50;;;;;;;1.00;0.70;;;;;;;;;;5115076;28;20030;-71
2023/11/12 09:42:37;;;;;;;3.92;1.08;;;;;;;;;;5114756;28;20034;-71
2023/11/12 09:45:24;;;;;;;2.33;0.98;;;;;;;;;;5115071;28;20028;-71
2023/11/12 09:48:14;;;;;;;3.13;0.95;;;;;;;;;;5115177;28;20456;-71
2023/11/12 09:51:00;;;;;;;1.67;0.80;;;;;;;;;;5115361;28;20027;-71
2023/11/12 09:53:47;;;;;;;1.65;0.93;;;;;;;;;;5114861;28;20059;-72
2023/11/12 09:56:34;;;;;;;3.50;0.93;;;;;;;;;;5100719;28;20024;-73
2023/11/12 09:59:20;;;;;;;1.20;0.75;;;;;;;;;;5100035;28;20106;-70
2023/11/12 10:02:06;;;;;;;2.20;0.90;;;;;;;;;;5114695;28;20057;-71
2023/11/12 10:04:59;;;;;;;1.48;0.80;;;;;;;;;;5115567;28;20090;-71
2023/11/12 10:07:45;;;;;;;1.40;0.90;;;;;;;;;;5100903;28;20030;-71
2023/11/12 10:10:31;;;;;;;1.88;0.98;;;;;;;;;;5114256;28;20015;-71
2023/11/12 10:13:18;;;;;;;1.85;0.80;;;;;;;;;;5113747;28;20428;-72
2023/11/12 10:16:19;;;;;;;1.85;1.10;;;;;;;;;;5114889;28;20356;-73
2023/11/12 10:19:13;;;;;;;1.65;1.17;;;;;;;;;;5114370;28;20094;-72
2023/11/12 10:22:00;;;;;;;2.00;1.00;;;;;;;;;;5114424;28;20019;-71
2023/11/12 10:24:46;;;;;;;1.50;1.00;;;;;;;;;;5115009;28;20371;-71
2023/11/12 10:27:32;;;;;;;1.67;0.90;;;;;;;;;;5114508;28;20513;-71
2023/11/12 10:30:18;;;;;;;1.27;0.90;;;;;;;;;;5113934;28;20027;-71
2023/11/12 10:33:20;;;;;;;3.92;0.90;;;;;;;;;;5115087;28;20333;-72
2023/11/12 10:36:09;;;;;;;3.45;0.82;;;;;;;;;;5113981;28;20024;-73
2023/11/12 10:39:01;;;;;;;1.52;0.85;;;;;;;;;;5113898;28;20022;-71
2023/11/12 10:41:48;;;;;;;2.67;0.90;;;;;;;;;;5114119;28;20027;-72
2023/11/12 10:44:34;;;;;;;1.30;0.90;;;;;;;;;;5113298;28;20038;-72
2023/11/12 10:47:22;;;;;;;1.42;0.70;;;;;;;;;;5099532;28;20027;-72
2023/11/12 10:50:08;;;;;;;1.42;0.90;;;;;;;;;;5099722;28;20016;-72
2023/11/12 10:52:54;;;;;;;2.25;1.02;;;;;;;;;;5114281;28;20055;-72
2023/11/12 10:55:40;;;;;;;3.35;0.85;;;;;;;;;;5099223;28;20053;-72
2023/11/12 10:58:27;;;;;;;1.83;0.82;;;;;;;;;;5083943;28;20031;-71
2023/11/12 11:01:14;;;;;;;14.77;2.20;;;;;;;;;;5092686;28;20031;-72
2023/11/12 11:04:00;;;;;;;39.33;4.47;;;;;;;;;;5095037;28;20025;-72
2023/11/12 11:06:45;;;;;;;5.38;1.42;;;;;;;;;;5102157;28;20039;-71
2023/11/12 11:09:31;;;;;;;30.05;3.75;;;;;;;;;;5084581;28;20031;-70
2023/11/12 11:12:17;;;;;;;3.67;1.40;;;;;;;;;;5101191;28;20104;-70
2023/11/12 11:15:22;;;;;;;6.78;1.80;;;;;;;;;;5084690;28;20031;-70
2023/11/12 11:18:28;;;;;;;4.75;1.13;;;;;;;;;;5075841;28;20109;-71
2023/11/12 11:21:15;;;;;;;18.60;2.63;;;;;;;;;;5074058;28;20106;-73
2023/11/12 11:24:02;;;;;;;11.32;2.30;;;;;;;;;;5074248;28;20342;-71
2023/11/12 11:26:47;;;;;;;50.08;5.13;;;;;;;;;;5058587;28;20025;-70
2023/11/12 11:29:33;;;;;;;8.70;1.55;;;;;;;;;;5074568;28;20039;-71
2023/11/12 11:32:19;;;;;;;9.60;1.60;;;;;;;;;;5074799;28;20104;-70
2023/11/12 11:35:25;;;;;;;36.90;3.70;;;;;;;;;;5060460;28;20048;-71
2023/11/12 11:38:12;;;;;;;5.18;1.40;;;;;;;;;;5074056;28;20028;-71
2023/11/12 11:40:57;;;;;;;5.07;1.67;;;;;;;;;;5072702;28;20032;-72
2023/11/12 11:43:44;;;;;;;10.13;2.05;;;;;;;;;;5060066;28;20103;-72
2023/11/12 11:46:30;;;;;;;1.65;1.10;;;;;;;;;;5075639;28;20330;-71
2023/11/12 11:49:16;;;;;;;5.07;1.23;;;;;;;;;;5062948;28;20013;-71
2023/11/12 11:52:02;;;;;;;11.50;3.50;;;;;;;;;;5062976;28;20475;-71
2023/11/12 11:54:57;;;;;;;31.65;3.65;;;;;;;;;;5110429;28;20081;-71
2023/11/12 11:57:46;;;;;;;5.43;1.20;;;;;;;;;;5101631;28;20107;-71
2023/11/12 12:00:32;;;;;;;3.33;1.30;;;;;;;;;;5117035;28;20098;-71
2023/11/12 12:03:20;;;;;;;3.60;1.20;;;;;;;;;;5116169;28;20103;-67
2023/11/12 12:06:15;;;;;;;1.92;1.25;;;;;;;;;;5115733;28;20031;-72
2023/11/12 12:09:01;;;;;;;4.53;1.25;;;;;;;;;;5117276;28;20023;-71
2023/11/12 12:11:48;;;;;;;3.22;1.30;;;;;;;;;;5116013;28;20019;-72
2023/11/12 12:14:35;;;;;;;4.97;1.60;;;;;;;;;;5116704;28;20036;-70
2023/11/12 12:17:20;;;;;;;4.78;1.40;;;;;;;;;;5116538;28;20028;-71
2023/11/12 12:20:07;;;;;;;2.00;1.20;;;;;;;;;;5116316;28;20031;-71
2023/11/12 12:22:52;;;;;;;1.42;1.08;;;;;;;;;;5100851;28;20016;-72
2023/11/12 12:25:49;;;;;;;4.15;1.23;;;;;;;;;;5115904;28;20023;-70
2023/11/12 12:28:35;;;;;;;3.05;1.20;;;;;;;;;;5102340;28;20051;-71
2023/11/12 12:31:26;;;;;;;2.22;1.27;;;;;;;;;;5115860;28;20032;-70
2023/11/12 12:34:12;;;;;;;2.40;1.08;;;;;;;;;;5117779;28;20492;-71
2023/11/12 12:37:06;;;;;;;1.13;0.80;;;;;;;;;;5116455;28;20052;-71
2023/11/12 12:39:56;;;;;;;1.88;1.13;;;;;;;;;;5102409;28;20027;-70
2023/11/12 12:42:43;;;;;;;1.65;1.08;;;;;;;;;;5100398;28;20015;-72
2023/11/12 12:45:30;;;;;;;2.13;1.33;;;;;;;;;;5101122;28;20027;-70
2023/11/12 12:48:17;;;;;;;6.65;1.55;;;;;;;;;;5100401;28;20019;-71
2023/11/12 12:51:03;;;;;;;5.35;1.42;;;;;;;;;;5101318;28;20035;-71
2023/11/12 12:53:52;;;;;;;6.25;1.45;;;;;;;;;;5105855;28;20039;-71
2023/11/12 12:56:38;;;;;;;19.63;2.38;;;;;;;;;;5101054;28;20168;-72
2023/11/12 12:59:24;;;;;;;5.32;1.02;;;;;;;;;;5116696;28;20462;-71
2023/11/12 13:02:10;;;;;;;2.35;1.20;;;;;;;;;;5116387;28;20363;-72
2023/11/12 13:04:59;;;;;;;5.95;1.33;;;;;;;;;;5116635;28;20058;-71
2023/11/12 13:07:48;;;;;;;1.95;1.10;;;;;;;;;;5117004;28;20023;-72
2023/11/12 13:10:34;;;;;;;2.97;0.98;;;;;;;;;;5117316;28;20028;-72
2023/11/12 13:13:21;;;;;;;5.30;1.30;;;;;;;;;;5129440;28;20011;-70
2023/11/12 13:16:10;;;;;;;6.13;1.45;;;;;;;;;;5113531;28;20032;-71
2023/11/12 13:18:55;;;;;;;2.40;1.30;;;;;;;;;;5125868;28;20463;-72
2023/11/12 13:21:44;;;;;;;5.75;1.85;;;;;;;;;;5116147;28;20015;-72
2023/11/12 13:24:30;;;;;;;4.68;1.30;;;;;;;;;;5104406;28;20020;-72
2023/11/12 13:27:15;;;;;;;4.13;1.35;;;;;;;;;;5129097;28;20026;-70
2023/11/12 13:30:01;;;;;;;3.90;1.35;;;;;;;;;;5113961;28;20034;-71
2023/11/12 13:32:49;;;;;;;2.28;1.08;;;;;;;;;;5110113;28;20096;-71
2023/11/12 13:35:35;;;;;;;2.35;1.20;;;;;;;;;;5130595;27;20048;-72
2023/11/12 13:38:20;;;;;;;2.78;1.30;;;;;;;;;;5111480;28;20030;-71
2023/11/12 13:41:10;;;;;;;2.30;1.30;;;;;;;;;;5107633;28;20416;-70
2023/11/12 13:43:57;;;;;;;5.30;1.08;;;;;;;;;;5114535;28;20356;-71
2023/11/12 13:46:42;;;;;;;3.85;1.40;;;;;;;;;;5114387;28;20069;-69
2023/11/12 13:49:28;;;;;;;1.48;0.90;;;;;;;;;;5115448;28;20027;-70
2023/11/12 13:52:17;;;;;;;3.20;1.42;;;;;;;;;;5113661;28;20030;-70
2023/11/12 13:55:03;;;;;;;2.05;0.98;;;;;;;;;;5127332;28;20054;-70
2023/11/12 13:57:49;;;;;;;3.97;1.30;;;;;;;;;;5104981;28;20020;-71
2023/11/12 14:00:35;;;;;;;1.73;1.20;;;;;;;;;;5102586;28;20020;-71
2023/11/12 14:03:22;;;;;;;6.13;1.40;;;;;;;;;;5102674;28;20399;-72
2023/11/12 14:06:08;;;;;;;5.38;1.48;;;;;;;;;;5100650;28;20083;-71
2023/11/12 14:08:53;;;;;;;7.43;1.55;;;;;;;;;;5101633;28;20102;-70
2023/11/12 14:11:39;;;;;;;11.63;1.40;;;;;;;;;;5115844;28;20527;-72
2023/11/12 14:14:25;;;;;;;9.32;1.73;;;;;;;;;;5101316;28;20019;-71
2023/11/12 14:17:11;;;;;;;15.77;1.63;;;;;;;;;;5105110;28;20353;-72
2023/11/12 14:19:58;;;;;;;49.03;5.85;;;;;;;;;;5120899;28;20015;-72
2023/11/12 14:22:44;;;;;;;22.52;3.95;;;;;;;;;;5116582;28;20027;-71
2023/11/12 14:25:30;;;;;;;7.07;1.63;;;;;;;;;;5115299;28;20019;-71
2023/11/12 14:28:16;;;;;;;12.27;2.40;;;;;;;;;;5114963;28;20028;-71
2023/11/12 14:31:06;;;;;;;33.15;3.05;;;;;;;;;;5104573;28;20051;-71
2023/11/12 14:33:52;;;;;;;56.53;7.07;;;;;;;;;;5119625;28;20027;-71
2023/11/12 14:36:39;;;;;;;16.60;3.55;;;;;;;;;;5123330;28;20028;-71
2023/11/12 14:39:24;;;;;;;33.88;4.28;;;;;;;;;;5108871;28;20020;-71
2023/11/12 14:42:10;;;;;;;20.88;3.63;;;;;;;;;;5123288;28;20035;-71
2023/11/12 14:44:56;;;;;;;4.53;1.50;;;;;;;;;;5122749;28;20015;-71
2023/11/12 14:47:41;;;;;;;17.83;3.40;;;;;;;;;;5124723;28;20094;-72
2023/11/12 14:50:27;;;;;;;22.23;3.28;;;;;;;;;;5110503;28;20502;-70
2023/11/12 14:53:13;;;;;;;13.55;2.70;;;;;;;;;;5125792;28;20027;-71
2023/11/12 14:55:58;;;;;;;32.53;5.13;;;;;;;;;;5124385;28;20104;-71
2023/11/12 14:58:44;;;;;;;15.23;2.42;;;;;;;;;;5126375;28;20474;-69
2023/11/12 15:01:30;;;;;;;33.47;4.15;;;;;;;;;;5124240;28;20023;-72
2023/11/12 15:04:16;;;;;;;13.98;3.70;;;;;;;;;;5124708;28;20084;-69
2023/11/12 15:07:02;;;;;;;13.75;2.58;;;;;;;;;;5122452;28;20084;-70
2023/11/12 15:09:48;;;;;;;7.18;2.28;;;;;;;;;;5101900;28;20450;-71
2023/11/12 15:12:34;;;;;;;5.13;2.28;;;;;;;;;;5100552;28;20049;-71
2023/11/12 15:15:20;;;;;;;7.88;2.85;;;;;;;;;;5114085;28;20444;-71
2023/11/12 15:18:05;;;;;;;28.00;4.40;;;;;;;;;;5114375;28;20439;-71
2023/11/12 15:20:51;;;;;;;13.65;3.25;;;;;;;;;;5116897;28;20125;-70
2023/11/12 15:23:37;;;;;;;6.53;2.55;;;;;;;;;;5118498;28;20015;-71
2023/11/12 15:26:22;;;;;;;6.93;2.25;;;;;;;;;;5119695;28;20028;-70
2023/11/12 15:29:08;;;;;;;7.40;3.67;;;;;;;;;;5118611;28;20043;-71
2023/11/12 15:31:53;;;;;;;8.93;3.85;;;;;;;;;;5117054;28;20027;-71
2023/11/12 15:34:39;;;;;;;5.85;3.78;;;;;;;;;;5083029;28;20023;-72
2023/11/12 15:37:25;;;;;;;7.78;3.63;;;;;;;;;;5098583;28;20035;-71
2023/11/12 15:40:18;;;;;;;8.38;4.25;;;;;;;;;;5087463;28;20024;-69
2023/11/12 15:43:03;;;;;;;5.50;3.42;;;;;;;;;;5120858;28;20040;-72
2023/11/12 15:45:49;;;;;;;6.50;3.50;;;;;;;;;;5120168;28;20016;-71
2023/11/12 15:48:34;;;;;;;7.57;4.00;;;;;;;;;;5120361;28;20046;-71
2023/11/12 15:51:22;;;;;;;9.27;4.68;;;;;;;;;;5076083;28;20020;-73
2023/11/12 15:54:08;;;;;;;14.25;7.03;;;;;;;;;;5088652;28;20040;-72
2023/11/12 15:56:53;;;;;;;10.32;5.95;;;;;;;;;;5076916;28;20029;-72
2023/11/12 15:59:39;;;;;;;10.35;5.47;;;;;;;;;;5077717;28;20105;-71
2023/11/12 16:02:25;;;;;;;7.65;4.28;;;;;;;;;;5063241;28;20412;-73
2023/11/12 16:05:12;;;;;;;7.95;3.90;;;;;;;;;;5078329;28;20024;-71
2023/11/12 16:07:58;;;;;;;4.93;2.95;;;;;;;;;;5076906;28;20025;-72
2023/11/12 16:10:43;;;;;;;6.88;3.35;;;;;;;;;;5077387;28;20017;-71
2023/11/12 16:13:31;;;;;;;7.45;4.22;;;;;;;;;;5076848;28;20099;-72
2023/11/12 16:16:16;;;;;;;6.97;4.40;;;;;;;;;;5062302;28;20025;-72
2023/11/12 16:19:02;;;;;;;7.40;5.00;;;;;;;;;;5077758;28;20100;-72
2023/11/12 16:21:48;;;;;;;10.05;5.65;;;;;;;;;;5062394;28;20012;-73
2023/11/12 16:24:33;;;;;;;8.43;4.90;;;;;;;;;;5075658;28;20100;-72
2023/11/12 16:27:19;;;;;;;11.85;5.32;;;;;;;;;;5076929;28;20024;-72
2023/11/12 16:30:06;;;;;;;9.90;4.60;;;;;;;;;;5076957;28;20013;-72
2023/11/12 16:32:52;;;;;;;9.52;4.97;;;;;;;;;;5080666;28;20438;-72
2023/11/12 16:35:38;;;;;;;7.50;4.35;;;;;;;;;;5095530;28;20106;-73